sensor_id;sensor_type;location;lat;lon;timestamp;temperature;humidity
67555;HTU21D;54385;53.516;49.456;2024-03-23T00:53:19;20.60;19.99
67555;HTU21D;54385;53.516;49.456;2024-03-23T00:55:46;20.61;19.96
67555;HTU21D;54385;53.516;49.456;2024-03-23T00:58:13;20.60;19.96
67555;HTU21D;54385;53.516;49.456;2024-03-23T01:00:39;20.60;19.95
67555;HTU21D;54385;53.516;49.456;2024-03-23T01:03:06;20.60;19.95
67555;HTU21D;54385;53.516;49.456;2024-03-23T01:05:33;20.58;19.98
67555;HTU21D;54385;53.516;49.456;2024-03-23T01:08:02;20.57;19.95
67555;HTU21D;54385;53.516;49.456;2024-03-23T01:10:28;20.56;19.96
67555;HTU21D;54385;53.516;49.456;2024-03-23T01:12:55;20.55;19.98
67555;HTU21D;54385;53.516;49.456;2024-03-23T01:15:21;20.55;19.99
67555;HTU21D;54385;53.516;49.456;2024-03-23T01:17:48;20.54;19.96
67555;HTU21D;54385;53.516;49.456;2024-03-23T01:20:15;20.54;19.94
67555;HTU21D;54385;53.516;49.456;2024-03-23T01:22:42;20.53;19.96
67555;HTU21D;54385;53.516;49.456;2024-03-23T01:25:08;20.54;19.94
67555;HTU21D;54385;53.516;49.456;2024-03-23T01:27:35;20.51;19.96
67555;HTU21D;54385;53.516;49.456;2024-03-23T01:30:01;20.53;19.95
67555;HTU21D;54385;53.516;49.456;2024-03-23T01:32:28;20.54;19.93
67555;HTU21D;54385;53.516;49.456;2024-03-23T01:34:54;20.51;19.94
67555;HTU21D;54385;53.516;49.456;2024-03-23T01:37:21;20.53;19.92
67555;HTU21D;54385;53.516;49.456;2024-03-23T01:39:48;20.51;19.93
67555;HTU21D;54385;53.516;49.456;2024-03-23T01:42:14;20.51;19.92
67555;HTU21D;54385;53.516;49.456;2024-03-23T01:44:41;20.50;19.92
67555;HTU21D;54385;53.516;49.456;2024-03-23T01:47:07;20.49;19.92
67555;HTU21D;54385;53.516;49.456;2024-03-23T01:49:34;20.48;19.92
67555;HTU21D;54385;53.516;49.456;2024-03-23T01:52:02;20.46;19.95
67555;HTU21D;54385;53.516;49.456;2024-03-23T01:54:29;20.46;19.95
67555;HTU21D;54385;53.516;49.456;2024-03-23T01:56:56;20.46;19.93
67555;HTU21D;54385;53.516;49.456;2024-03-23T01:59:23;20.46;19.93
67555;HTU21D;54385;53.516;49.456;2024-03-23T02:01:50;20.45;19.93
67555;HTU21D;54385;53.516;49.456;2024-03-23T02:04:16;20.44;19.95
67555;HTU21D;54385;53.516;49.456;2024-03-23T02:06:43;20.44;19.96
67555;HTU21D;54385;53.516;49.456;2024-03-23T02:09:10;20.44;19.94
67555;HTU21D;54385;53.516;49.456;2024-03-23T02:11:36;20.43;19.92
67555;HTU21D;54385;53.516;49.456;2024-03-23T02:14:08;20.45;19.91
67555;HTU21D;54385;53.516;49.456;2024-03-23T02:16:35;20.43;19.92
67555;HTU21D;54385;53.516;49.456;2024-03-23T02:19:01;20.43;19.92
67555;HTU21D;54385;53.516;49.456;2024-03-23T02:21:28;20.42;19.92
67555;HTU21D;54385;53.516;49.456;2024-03-23T02:23:59;20.39;19.96
67555;HTU21D;54385;53.516;49.456;2024-03-23T02:26:26;20.39;19.96
67555;HTU21D;54385;53.516;49.456;2024-03-23T02:28:53;20.39;19.96
67555;HTU21D;54385;53.516;49.456;2024-03-23T02:31:19;20.39;19.93
67555;HTU21D;54385;53.516;49.456;2024-03-23T02:33:46;20.39;19.93
67555;HTU21D;54385;53.516;49.456;2024-03-23T02:36:13;20.39;19.91
67555;HTU21D;54385;53.516;49.456;2024-03-23T02:38:39;20.40;19.90
67555;HTU21D;54385;53.516;49.456;2024-03-23T02:41:06;20.41;19.89
67555;HTU21D;54385;53.516;49.456;2024-03-23T02:43:36;20.40;19.88
67555;HTU21D;54385;53.516;49.456;2024-03-23T02:46:05;20.41;19.86
67555;HTU21D;54385;53.516;49.456;2024-03-23T02:48:32;20.42;19.85
67555;HTU21D;54385;53.516;49.456;2024-03-23T02:50:59;20.44;19.82
67555;HTU21D;54385;53.516;49.456;2024-03-23T02:53:26;20.46;19.78
67555;HTU21D;54385;53.516;49.456;2024-03-23T02:55:53;20.49;19.73
67555;HTU21D;54385;53.516;49.456;2024-03-23T02:58:19;20.50;19.72
67555;HTU21D;54385;53.516;49.456;2024-03-23T03:00:48;20.51;19.70
67555;HTU21D;54385;53.516;49.456;2024-03-23T03:03:15;20.54;19.66
67555;HTU21D;54385;53.516;49.456;2024-03-23T03:05:44;20.57;19.61
67555;HTU21D;54385;53.516;49.456;2024-03-23T03:08:11;20.59;19.57
67555;HTU21D;54385;53.516;49.456;2024-03-23T03:10:38;20.62;19.54
67555;HTU21D;54385;53.516;49.456;2024-03-23T03:13:05;20.66;19.47
67555;HTU21D;54385;53.516;49.456;2024-03-23T03:15:31;20.68;19.45
67555;HTU21D;54385;53.516;49.456;2024-03-23T03:17:59;20.71;19.41
67555;HTU21D;54385;53.516;49.456;2024-03-23T03:20:25;20.74;19.35
67555;HTU21D;54385;53.516;49.456;2024-03-23T03:22:53;20.77;19.31
67555;HTU21D;54385;53.516;49.456;2024-03-23T03:25:20;20.83;19.23
67555;HTU21D;54385;53.516;49.456;2024-03-23T03:27:46;20.87;19.18
67555;HTU21D;54385;53.516;49.456;2024-03-23T03:30:13;20.90;19.12
67555;HTU21D;54385;53.516;49.456;2024-03-23T03:32:40;20.94;19.07
67555;HTU21D;54385;53.516;49.456;2024-03-23T03:35:08;20.96;19.04
67555;HTU21D;54385;53.516;49.456;2024-03-23T03:37:36;21.00;18.99
67555;HTU21D;54385;53.516;49.456;2024-03-23T03:40:04;21.04;18.93
67555;HTU21D;54385;53.516;49.456;2024-03-23T03:42:38;21.08;18.86
67555;HTU21D;54385;53.516;49.456;2024-03-23T03:45:09;21.13;18.80
67555;HTU21D;54385;53.516;49.456;2024-03-23T03:47:36;21.17;18.75
67555;HTU21D;54385;53.516;49.456;2024-03-23T03:50:04;21.20;18.70
67555;HTU21D;54385;53.516;49.456;2024-03-23T03:52:32;21.23;18.66
67555;HTU21D;54385;53.516;49.456;2024-03-23T03:55:03;21.27;18.57
67555;HTU21D;54385;53.516;49.456;2024-03-23T03:57:31;21.30;18.55
67555;HTU21D;54385;53.516;49.456;2024-03-23T03:59:58;21.34;18.51
67555;HTU21D;54385;53.516;49.456;2024-03-23T04:02:24;21.37;18.46
67555;HTU21D;54385;53.516;49.456;2024-03-23T04:04:54;21.42;18.41
67555;HTU21D;54385;53.516;49.456;2024-03-23T04:07:21;21.46;18.36
67555;HTU21D;54385;53.516;49.456;2024-03-23T04:09:49;21.50;18.28
67555;HTU21D;54385;53.516;49.456;2024-03-23T04:12:15;21.54;18.23
67555;HTU21D;54385;53.516;49.456;2024-03-23T04:14:44;21.59;18.17
67555;HTU21D;54385;53.516;49.456;2024-03-23T04:17:13;21.63;18.12
67555;HTU21D;54385;53.516;49.456;2024-03-23T04:19:40;21.67;18.08
67555;HTU21D;54385;53.516;49.456;2024-03-23T04:22:07;21.72;18.01
67555;HTU21D;54385;53.516;49.456;2024-03-23T04:24:34;21.75;17.96
67555;HTU21D;54385;53.516;49.456;2024-03-23T04:27:01;21.81;17.90
67555;HTU21D;54385;53.516;49.456;2024-03-23T04:29:30;21.85;17.79
67555;HTU21D;54385;53.516;49.456;2024-03-23T04:31:57;21.89;17.79
67555;HTU21D;54385;53.516;49.456;2024-03-23T04:34:23;21.92;17.74
67555;HTU21D;54385;53.516;49.456;2024-03-23T04:36:50;21.96;17.67
67555;HTU21D;54385;53.516;49.456;2024-03-23T04:39:17;22.01;17.61
67555;HTU21D;54385;53.516;49.456;2024-03-23T04:41:46;22.05;17.55
67555;HTU21D;54385;53.516;49.456;2024-03-23T04:44:15;22.09;17.52
67555;HTU21D;54385;53.516;49.456;2024-03-23T04:46:41;22.13;17.45
67555;HTU21D;54385;53.516;49.456;2024-03-23T04:49:08;22.17;17.39
67555;HTU21D;54385;53.516;49.456;2024-03-23T04:51:38;22.22;17.31
67555;HTU21D;54385;53.516;49.456;2024-03-23T04:54:07;22.25;17.29
67555;HTU21D;54385;53.516;49.456;2024-03-23T04:56:33;22.29;17.23
67555;HTU21D;54385;53.516;49.456;2024-03-23T04:59:00;22.33;17.19
67555;HTU21D;54385;53.516;49.456;2024-03-23T05:01:28;22.38;17.14
67555;HTU21D;54385;53.516;49.456;2024-03-23T05:03:54;22.41;17.08
67555;HTU21D;54385;53.516;49.456;2024-03-23T05:06:21;22.43;17.06
67555;HTU21D;54385;53.516;49.456;2024-03-23T05:08:47;22.47;16.99
67555;HTU21D;54385;53.516;49.456;2024-03-23T05:11:14;22.51;16.95
67555;HTU21D;54385;53.516;49.456;2024-03-23T05:13:42;22.54;16.90
67555;HTU21D;54385;53.516;49.456;2024-03-23T05:16:08;22.58;16.86
67555;HTU21D;54385;53.516;49.456;2024-03-23T05:18:35;22.63;16.82
67555;HTU21D;54385;53.516;49.456;2024-03-23T05:21:02;22.65;16.77
67555;HTU21D;54385;53.516;49.456;2024-03-23T05:23:29;22.70;16.72
67555;HTU21D;54385;53.516;49.456;2024-03-23T05:25:55;22.71;16.67
67555;HTU21D;54385;53.516;49.456;2024-03-23T05:28:22;22.77;16.63
67555;HTU21D;54385;53.516;49.456;2024-03-23T05:30:53;22.81;16.52
67555;HTU21D;54385;53.516;49.456;2024-03-23T05:33:20;22.84;16.52
67555;HTU21D;54385;53.516;49.456;2024-03-23T05:35:58;22.88;16.37
67555;HTU21D;54385;53.516;49.456;2024-03-23T05:38:25;22.94;16.42
67555;HTU21D;54385;53.516;49.456;2024-03-23T05:40:56;22.97;16.37
67555;HTU21D;54385;53.516;49.456;2024-03-23T05:43:23;23.01;16.32
67555;HTU21D;54385;53.516;49.456;2024-03-23T05:45:54;23.05;16.22
67555;HTU21D;54385;53.516;49.456;2024-03-23T05:48:21;23.08;16.22
67555;HTU21D;54385;53.516;49.456;2024-03-23T05:50:49;23.11;16.19
67555;HTU21D;54385;53.516;49.456;2024-03-23T05:53:16;23.14;16.15
67555;HTU21D;54385;53.516;49.456;2024-03-23T05:55:43;23.18;16.12
67555;HTU21D;54385;53.516;49.456;2024-03-23T05:58:12;23.20;16.09
67555;HTU21D;54385;53.516;49.456;2024-03-23T06:00:39;23.25;16.06
67555;HTU21D;54385;53.516;49.456;2024-03-23T06:03:06;23.27;16.00
67555;HTU21D;54385;53.516;49.456;2024-03-23T06:05:32;23.29;15.97
67555;HTU21D;54385;53.516;49.456;2024-03-23T06:07:59;23.35;15.93
67555;HTU21D;54385;53.516;49.456;2024-03-23T06:10:26;23.38;15.90
67555;HTU21D;54385;53.516;49.456;2024-03-23T06:12:52;23.42;15.84
67555;HTU21D;54385;53.516;49.456;2024-03-23T06:15:19;23.45;15.79
67555;HTU21D;54385;53.516;49.456;2024-03-23T06:17:46;23.50;15.76
67555;HTU21D;54385;53.516;49.456;2024-03-23T06:20:16;23.54;15.72
67555;HTU21D;54385;53.516;49.456;2024-03-23T06:22:42;23.57;15.68
67555;HTU21D;54385;53.516;49.456;2024-03-23T06:25:09;23.59;15.65
67555;HTU21D;54385;53.516;49.456;2024-03-23T06:27:38;23.62;15.61
67555;HTU21D;54385;53.516;49.456;2024-03-23T06:30:08;23.66;15.58
67555;HTU21D;54385;53.516;49.456;2024-03-23T06:32:35;23.69;15.55
67555;HTU21D;54385;53.516;49.456;2024-03-23T06:35:01;23.74;15.51
67555;HTU21D;54385;53.516;49.456;2024-03-23T06:37:35;23.77;15.47
67555;HTU21D;54385;53.516;49.456;2024-03-23T06:40:02;23.82;15.41
67555;HTU21D;54385;53.516;49.456;2024-03-23T06:42:32;23.87;15.39
67555;HTU21D;54385;53.516;49.456;2024-03-23T06:44:58;23.90;15.34
67555;HTU21D;54385;53.516;49.456;2024-03-23T06:47:25;23.94;15.22
67555;HTU21D;54385;53.516;49.456;2024-03-23T06:49:54;24.01;15.20
67555;HTU21D;54385;53.516;49.456;2024-03-23T06:52:21;24.04;15.13
67555;HTU21D;54385;53.516;49.456;2024-03-23T06:54:47;24.08;15.13
67555;HTU21D;54385;53.516;49.456;2024-03-23T06:57:14;24.09;15.09
67555;HTU21D;54385;53.516;49.456;2024-03-23T06:59:40;24.10;15.06
67555;HTU21D;54385;53.516;49.456;2024-03-23T07:02:07;24.13;15.06
67555;HTU21D;54385;53.516;49.456;2024-03-23T07:04:36;24.15;15.03
67555;HTU21D;54385;53.516;49.456;2024-03-23T07:07:05;24.19;14.98
67555;HTU21D;54385;53.516;49.456;2024-03-23T07:09:32;24.23;14.93
67555;HTU21D;54385;53.516;49.456;2024-03-23T07:11:59;24.26;14.87
67555;HTU21D;54385;53.516;49.456;2024-03-23T07:14:25;24.29;14.84
67555;HTU21D;54385;53.516;49.456;2024-03-23T07:16:55;24.33;14.78
67555;HTU21D;54385;53.516;49.456;2024-03-23T07:19:21;24.33;14.81
67555;HTU21D;54385;53.516;49.456;2024-03-23T07:21:48;24.34;14.82
67555;HTU21D;54385;53.516;49.456;2024-03-23T07:24:15;24.35;14.80
67555;HTU21D;54385;53.516;49.456;2024-03-23T07:26:41;24.40;14.76
67555;HTU21D;54385;53.516;49.456;2024-03-23T07:29:08;24.45;14.72
67555;HTU21D;54385;53.516;49.456;2024-03-23T07:31:34;24.48;14.68
67555;HTU21D;54385;53.516;49.456;2024-03-23T07:34:01;24.53;14.68
67555;HTU21D;54385;53.516;49.456;2024-03-23T07:36:27;24.57;14.59
67555;HTU21D;54385;53.516;49.456;2024-03-23T07:38:54;24.59;14.59
67555;HTU21D;54385;53.516;49.456;2024-03-23T07:41:21;24.64;14.54
67555;HTU21D;54385;53.516;49.456;2024-03-23T07:43:48;24.65;14.53
67555;HTU21D;54385;53.516;49.456;2024-03-23T07:46:15;24.68;14.52
67555;HTU21D;54385;53.516;49.456;2024-03-23T07:48:45;24.72;14.44
67555;HTU21D;54385;53.516;49.456;2024-03-23T07:51:22;24.76;14.41
67555;HTU21D;54385;53.516;49.456;2024-03-23T07:53:49;24.80;14.42
67555;HTU21D;54385;53.516;49.456;2024-03-23T07:56:16;24.85;14.39
67555;HTU21D;54385;53.516;49.456;2024-03-23T07:58:45;24.88;14.36
67555;HTU21D;54385;53.516;49.456;2024-03-23T08:01:13;24.93;14.32
67555;HTU21D;54385;53.516;49.456;2024-03-23T08:03:42;24.97;14.28
67555;HTU21D;54385;53.516;49.456;2024-03-23T08:06:17;25.01;14.20
67555;HTU21D;54385;53.516;49.456;2024-03-23T08:08:45;25.05;14.23
67555;HTU21D;54385;53.516;49.456;2024-03-23T08:11:12;25.05;14.23
67555;HTU21D;54385;53.516;49.456;2024-03-23T08:13:42;25.07;14.23
67555;HTU21D;54385;53.516;49.456;2024-03-23T08:16:14;25.13;14.20
67555;HTU21D;54385;53.516;49.456;2024-03-23T08:18:40;25.15;14.18
67555;HTU21D;54385;53.516;49.456;2024-03-23T08:21:08;25.21;14.16
67555;HTU21D;54385;53.516;49.456;2024-03-23T08:23:35;25.23;14.13
67555;HTU21D;54385;53.516;49.456;2024-03-23T08:26:11;25.28;14.09
67555;HTU21D;54385;53.516;49.456;2024-03-23T08:28:39;25.31;14.07
67555;HTU21D;54385;53.516;49.456;2024-03-23T08:31:08;25.37;14.00
67555;HTU21D;54385;53.516;49.456;2024-03-23T08:33:35;25.43;14.00
67555;HTU21D;54385;53.516;49.456;2024-03-23T08:36:03;25.46;13.98
67555;HTU21D;54385;53.516;49.456;2024-03-23T08:38:30;25.49;13.97
67555;HTU21D;54385;53.516;49.456;2024-03-23T08:40:59;25.52;13.93
67555;HTU21D;54385;53.516;49.456;2024-03-23T08:43:26;25.56;13.94
67555;HTU21D;54385;53.516;49.456;2024-03-23T08:45:53;25.59;13.93
67555;HTU21D;54385;53.516;49.456;2024-03-23T08:48:20;25.59;13.91
67555;HTU21D;54385;53.516;49.456;2024-03-23T08:50:47;25.63;13.91
67555;HTU21D;54385;53.516;49.456;2024-03-23T08:53:23;25.66;13.85
67555;HTU21D;54385;53.516;49.456;2024-03-23T08:55:54;25.75;13.78
67555;HTU21D;54385;53.516;49.456;2024-03-23T08:58:21;25.82;13.76
67555;HTU21D;54385;53.516;49.456;2024-03-23T09:00:48;25.91;13.69
67555;HTU21D;54385;53.516;49.456;2024-03-23T09:03:15;25.98;13.62
67555;HTU21D;54385;53.516;49.456;2024-03-23T09:05:42;26.06;13.58
67555;HTU21D;54385;53.516;49.456;2024-03-23T09:08:08;26.12;13.52
67555;HTU21D;54385;53.516;49.456;2024-03-23T09:10:42;26.18;13.43
67555;HTU21D;54385;53.516;49.456;2024-03-23T09:13:08;26.22;13.45
67555;HTU21D;54385;53.516;49.456;2024-03-23T09:15:37;26.23;13.44
67555;HTU21D;54385;53.516;49.456;2024-03-23T09:18:04;26.23;13.48
67555;HTU21D;54385;53.516;49.456;2024-03-23T09:20:34;26.19;13.50
67555;HTU21D;54385;53.516;49.456;2024-03-23T09:23:00;26.13;13.59
67555;HTU21D;54385;53.516;49.456;2024-03-23T09:25:27;26.10;13.66
67555;HTU21D;54385;53.516;49.456;2024-03-23T09:27:54;26.06;13.70
67555;HTU21D;54385;53.516;49.456;2024-03-23T09:30:20;26.08;13.71
67555;HTU21D;54385;53.516;49.456;2024-03-23T09:32:47;26.09;13.71
67555;HTU21D;54385;53.516;49.456;2024-03-23T09:35:14;26.10;13.71
67555;HTU21D;54385;53.516;49.456;2024-03-23T09:37:41;26.09;13.74
67555;HTU21D;54385;53.516;49.456;2024-03-23T09:40:11;26.12;13.71
67555;HTU21D;54385;53.516;49.456;2024-03-23T09:42:38;26.16;13.72
67555;HTU21D;54385;53.516;49.456;2024-03-23T09:45:26;26.18;13.67
67555;HTU21D;54385;53.516;49.456;2024-03-23T09:47:53;26.22;13.68
67555;HTU21D;54385;53.516;49.456;2024-03-23T09:50:20;26.27;13.64
67555;HTU21D;54385;53.516;49.456;2024-03-23T09:52:49;26.35;13.58
67555;HTU21D;54385;53.516;49.456;2024-03-23T09:55:16;26.41;13.55
67555;HTU21D;54385;53.516;49.456;2024-03-23T09:57:42;26.49;13.49
67555;HTU21D;54385;53.516;49.456;2024-03-23T10:00:09;26.54;13.47
67555;HTU21D;54385;53.516;49.456;2024-03-23T10:02:38;26.58;13.45
67555;HTU21D;54385;53.516;49.456;2024-03-23T10:05:29;26.65;13.33
67555;HTU21D;54385;53.516;49.456;2024-03-23T10:07:57;26.71;13.35
67555;HTU21D;54385;53.516;49.456;2024-03-23T10:10:27;26.79;13.26
67555;HTU21D;54385;53.516;49.456;2024-03-23T10:12:54;26.89;13.23
67555;HTU21D;54385;53.516;49.456;2024-03-23T10:15:25;26.97;13.11
67555;HTU21D;54385;53.516;49.456;2024-03-23T10:17:52;27.09;13.08
67555;HTU21D;54385;53.516;49.456;2024-03-23T10:20:22;27.27;12.85
67555;HTU21D;54385;53.516;49.456;2024-03-23T10:22:54;27.45;12.77
67555;HTU21D;54385;53.516;49.456;2024-03-23T10:25:25;27.66;12.55
67555;HTU21D;54385;53.516;49.456;2024-03-23T10:27:59;27.84;12.35
67555;HTU21D;54385;53.516;49.456;2024-03-23T10:30:26;27.99;12.32
67555;HTU21D;54385;53.516;49.456;2024-03-23T10:33:14;28.06;12.17
67555;HTU21D;54385;53.516;49.456;2024-03-23T10:35:41;28.12;12.26
67555;HTU21D;54385;53.516;49.456;2024-03-23T10:38:08;28.21;12.20
67555;HTU21D;54385;53.516;49.456;2024-03-23T10:40:36;28.29;12.14
67555;HTU21D;54385;53.516;49.456;2024-03-23T10:43:06;28.35;12.07
67555;HTU21D;54385;53.516;49.456;2024-03-23T10:45:34;28.37;12.08
67555;HTU21D;54385;53.516;49.456;2024-03-23T10:48:01;28.39;12.07
67555;HTU21D;54385;53.516;49.456;2024-03-23T10:50:32;28.46;12.04
67555;HTU21D;54385;53.516;49.456;2024-03-23T10:52:59;28.56;11.97
67555;HTU21D;54385;53.516;49.456;2024-03-23T10:55:26;28.64;11.93
67555;HTU21D;54385;53.516;49.456;2024-03-23T10:57:55;28.65;11.90
67555;HTU21D;54385;53.516;49.456;2024-03-23T11:00:25;28.62;11.95
67555;HTU21D;54385;53.516;49.456;2024-03-23T11:02:51;28.60;12.01
67555;HTU21D;54385;53.516;49.456;2024-03-23T11:05:28;28.58;11.98
67555;HTU21D;54385;53.516;49.456;2024-03-23T11:07:54;28.65;12.02
67555;HTU21D;54385;53.516;49.456;2024-03-23T11:10:31;28.73;11.85
67555;HTU21D;54385;53.516;49.456;2024-03-23T11:13:23;28.85;11.78
67555;HTU21D;54385;53.516;49.456;2024-03-23T11:15:50;29.06;11.73
67555;HTU21D;54385;53.516;49.456;2024-03-23T11:18:26;29.34;11.43
67555;HTU21D;54385;53.516;49.456;2024-03-23T11:20:52;29.59;11.34
67555;HTU21D;54385;53.516;49.456;2024-03-23T11:23:28;29.86;11.01
67555;HTU21D;54385;53.516;49.456;2024-03-23T11:25:55;30.05;10.98
67555;HTU21D;54385;53.516;49.456;2024-03-23T11:28:21;30.23;10.88
67555;HTU21D;54385;53.516;49.456;2024-03-23T11:30:48;30.42;10.69
67555;HTU21D;54385;53.516;49.456;2024-03-23T11:33:15;30.64;10.55
67555;HTU21D;54385;53.516;49.456;2024-03-23T11:35:42;30.89;10.38
67555;HTU21D;54385;53.516;49.456;2024-03-23T11:38:10;31.16;10.19
67555;HTU21D;54385;53.516;49.456;2024-03-23T11:40:39;31.45;10.00
67555;HTU21D;54385;53.516;49.456;2024-03-23T11:43:14;31.74;9.69
67555;HTU21D;54385;53.516;49.456;2024-03-23T11:45:51;32.05;9.46
67555;HTU21D;54385;53.516;49.456;2024-03-23T11:48:20;32.32;9.48
67555;HTU21D;54385;53.516;49.456;2024-03-23T11:50:51;32.57;9.31
67555;HTU21D;54385;53.516;49.456;2024-03-23T11:53:25;32.86;9.02
67555;HTU21D;54385;53.516;49.456;2024-03-23T11:55:58;33.12;9.01
67555;HTU21D;54385;53.516;49.456;2024-03-23T11:58:26;33.51;8.82
67555;HTU21D;54385;53.516;49.456;2024-03-23T12:00:58;33.89;8.47
67555;HTU21D;54385;53.516;49.456;2024-03-23T12:03:26;34.07;8.37
67555;HTU21D;54385;53.516;49.456;2024-03-23T12:06:02;33.79;8.19
67555;HTU21D;54385;53.516;49.456;2024-03-23T12:08:30;33.28;8.72
67555;HTU21D;54385;53.516;49.456;2024-03-23T12:11:09;33.07;8.86
67555;HTU21D;54385;53.516;49.456;2024-03-23T12:13:38;33.14;9.03
67555;HTU21D;54385;53.516;49.456;2024-03-23T12:16:18;33.27;8.79
67555;HTU21D;54385;53.516;49.456;2024-03-23T12:18:49;33.11;8.95
67555;HTU21D;54385;53.516;49.456;2024-03-23T12:21:17;32.76;9.12
67555;HTU21D;54385;53.516;49.456;2024-03-23T12:23:44;32.41;9.34
67555;HTU21D;54385;53.516;49.456;2024-03-23T12:26:12;32.07;9.59
67555;HTU21D;54385;53.516;49.456;2024-03-23T12:28:39;31.68;9.85
67555;HTU21D;54385;53.516;49.456;2024-03-23T12:31:06;31.41;10.06
67555;HTU21D;54385;53.516;49.456;2024-03-23T12:33:32;31.22;10.20
67555;HTU21D;54385;53.516;49.456;2024-03-23T12:35:59;31.28;10.21
67555;HTU21D;54385;53.516;49.456;2024-03-23T12:38:25;31.51;10.10
67555;HTU21D;54385;53.516;49.456;2024-03-23T12:40:52;31.73;9.88
67555;HTU21D;54385;53.516;49.456;2024-03-23T12:43:18;32.04;9.73
67555;HTU21D;54385;53.516;49.456;2024-03-23T12:45:49;32.66;9.30
67555;HTU21D;54385;53.516;49.456;2024-03-23T12:48:16;33.35;8.95
67555;HTU21D;54385;53.516;49.456;2024-03-23T12:50:43;34.11;8.46
67555;HTU21D;54385;53.516;49.456;2024-03-23T12:53:09;34.71;7.95
67555;HTU21D;54385;53.516;49.456;2024-03-23T12:55:36;34.97;7.69
67555;HTU21D;54385;53.516;49.456;2024-03-23T12:58:02;35.08;7.61
67555;HTU21D;54385;53.516;49.456;2024-03-23T13:00:29;34.92;7.73
67555;HTU21D;54385;53.516;49.456;2024-03-23T13:02:55;34.42;8.00
67555;HTU21D;54385;53.516;49.456;2024-03-23T13:05:22;33.81;8.41
67555;HTU21D;54385;53.516;49.456;2024-03-23T13:07:49;33.26;8.76
67555;HTU21D;54385;53.516;49.456;2024-03-23T13:10:15;32.85;9.05
67555;HTU21D;54385;53.516;49.456;2024-03-23T13:12:42;32.54;9.22
67555;HTU21D;54385;53.516;49.456;2024-03-23T13:15:09;32.28;9.39
67555;HTU21D;54385;53.516;49.456;2024-03-23T13:17:35;32.15;9.52
67555;HTU21D;54385;53.516;49.456;2024-03-23T13:20:03;32.03;9.56
67555;HTU21D;54385;53.516;49.456;2024-03-23T13:22:30;31.86;9.66
67555;HTU21D;54385;53.516;49.456;2024-03-23T13:24:57;31.63;9.87
67555;HTU21D;54385;53.516;49.456;2024-03-23T13:27:23;31.42;9.98
67555;HTU21D;54385;53.516;49.456;2024-03-23T13:29:49;31.16;10.18
67555;HTU21D;54385;53.516;49.456;2024-03-23T13:32:16;30.78;10.46
67555;HTU21D;54385;53.516;49.456;2024-03-23T13:34:44;30.42;10.76
67555;HTU21D;54385;53.516;49.456;2024-03-23T13:37:10;30.16;10.99
67555;HTU21D;54385;53.516;49.456;2024-03-23T13:39:37;29.92;11.17
67555;HTU21D;54385;53.516;49.456;2024-03-23T13:42:04;29.67;11.40
67555;HTU21D;54385;53.516;49.456;2024-03-23T13:44:31;29.50;11.56
67555;HTU21D;54385;53.516;49.456;2024-03-23T13:46:57;29.32;11.69
67555;HTU21D;54385;53.516;49.456;2024-03-23T13:49:28;29.07;11.94
67555;HTU21D;54385;53.516;49.456;2024-03-23T13:51:56;28.85;12.12
67555;HTU21D;54385;53.516;49.456;2024-03-23T13:54:27;28.69;12.30
67555;HTU21D;54385;53.516;49.456;2024-03-23T13:56:55;28.46;12.48
67555;HTU21D;54385;53.516;49.456;2024-03-23T13:59:22;28.28;12.65
67555;HTU21D;54385;53.516;49.456;2024-03-23T14:01:49;28.26;12.67
67555;HTU21D;54385;53.516;49.456;2024-03-23T14:04:17;28.20;12.70
67555;HTU21D;54385;53.516;49.456;2024-03-23T14:06:45;28.08;12.82
67555;HTU21D;54385;53.516;49.456;2024-03-23T14:09:15;27.90;13.03
67555;HTU21D;54385;53.516;49.456;2024-03-23T14:11:47;27.94;12.96
67555;HTU21D;54385;53.516;49.456;2024-03-23T14:14:14;27.96;12.94
67555;HTU21D;54385;53.516;49.456;2024-03-23T14:16:44;27.88;12.99
67555;HTU21D;54385;53.516;49.456;2024-03-23T14:19:10;27.80;13.07
67555;HTU21D;54385;53.516;49.456;2024-03-23T14:21:37;27.70;13.17
67555;HTU21D;54385;53.516;49.456;2024-03-23T14:24:04;27.72;13.17
67555;HTU21D;54385;53.516;49.456;2024-03-23T14:26:31;27.80;13.09
67555;HTU21D;54385;53.516;49.456;2024-03-23T14:28:57;27.90;13.01
67555;HTU21D;54385;53.516;49.456;2024-03-23T14:31:24;27.90;12.98
67555;HTU21D;54385;53.516;49.456;2024-03-23T14:33:51;27.57;13.23
67555;HTU21D;54385;53.516;49.456;2024-03-23T14:36:17;27.25;13.56
67555;HTU21D;54385;53.516;49.456;2024-03-23T14:38:48;26.89;13.94
67555;HTU21D;54385;53.516;49.456;2024-03-23T14:41:15;26.57;14.18
67555;HTU21D;54385;53.516;49.456;2024-03-23T14:43:41;26.30;14.45
67555;HTU21D;54385;53.516;49.456;2024-03-23T14:46:14;26.04;14.76
67555;HTU21D;54385;53.516;49.456;2024-03-23T14:48:43;25.78;15.01
67555;HTU21D;54385;53.516;49.456;2024-03-23T14:51:10;25.57;15.20
67555;HTU21D;54385;53.516;49.456;2024-03-23T14:53:39;25.37;15.43
67555;HTU21D;54385;53.516;49.456;2024-03-23T14:56:08;25.18;15.60
67555;HTU21D;54385;53.516;49.456;2024-03-23T14:58:41;24.99;15.79
67555;HTU21D;54385;53.516;49.456;2024-03-23T15:01:09;24.84;15.99
67555;HTU21D;54385;53.516;49.456;2024-03-23T15:03:36;24.66;16.16
67555;HTU21D;54385;53.516;49.456;2024-03-23T15:06:05;24.53;16.32
67555;HTU21D;54385;53.516;49.456;2024-03-23T15:08:32;24.40;16.42
67555;HTU21D;54385;53.516;49.456;2024-03-23T15:10:59;24.28;16.56
67555;HTU21D;54385;53.516;49.456;2024-03-23T15:13:26;24.17;16.67
67555;HTU21D;54385;53.516;49.456;2024-03-23T15:15:53;24.06;16.79
67555;HTU21D;54385;53.516;49.456;2024-03-23T15:18:19;23.98;16.88
67555;HTU21D;54385;53.516;49.456;2024-03-23T15:20:53;23.88;17.02
67555;HTU21D;54385;53.516;49.456;2024-03-23T15:23:20;23.80;17.07
67555;HTU21D;54385;53.516;49.456;2024-03-23T15:25:53;23.72;17.16
67555;HTU21D;54385;53.516;49.456;2024-03-23T15:28:20;23.64;17.22
67555;HTU21D;54385;53.516;49.456;2024-03-23T15:30:46;23.57;17.30
67555;HTU21D;54385;53.516;49.456;2024-03-23T15:33:13;23.52;17.36
67555;HTU21D;54385;53.516;49.456;2024-03-23T15:35:39;23.46;17.41
67555;HTU21D;54385;53.516;49.456;2024-03-23T15:38:06;23.43;17.45
67555;HTU21D;54385;53.516;49.456;2024-03-23T15:40:32;23.36;17.51
67555;HTU21D;54385;53.516;49.456;2024-03-23T15:42:59;23.31;17.57
67555;HTU21D;54385;53.516;49.456;2024-03-23T15:45:26;23.28;17.62
67555;HTU21D;54385;53.516;49.456;2024-03-23T15:47:53;23.23;17.66
67555;HTU21D;54385;53.516;49.456;2024-03-23T15:50:20;23.20;17.69
67555;HTU21D;54385;53.516;49.456;2024-03-23T15:52:46;23.15;17.73
67555;HTU21D;54385;53.516;49.456;2024-03-23T15:55:13;23.12;17.76
67555;HTU21D;54385;53.516;49.456;2024-03-23T15:57:40;23.08;17.81
67555;HTU21D;54385;53.516;49.456;2024-03-23T16:00:07;23.05;17.86